地図

経路データ

SID SEASON NUMBER BASIN SUBBASIN NAME ISO_TIME NATURE LAT LON WMO_WIND WMO_PRES WMO_AGENCY TRACK_TYPE DIST2LAND LANDFALL IFLAG USA_AGENCY USA_ATCF_ID USA_LAT USA_LON USA_RECORD USA_STATUS USA_WIND USA_PRES USA_SSHS USA_R34_NE USA_R34_SE USA_R34_SW USA_R34_NW USA_R50_NE USA_R50_SE USA_R50_SW USA_R50_NW USA_R64_NE USA_R64_SE USA_R64_SW USA_R64_NW USA_POCI USA_ROCI USA_RMW USA_EYE TOKYO_LAT TOKYO_LON TOKYO_GRADE TOKYO_WIND TOKYO_PRES TOKYO_R50_DIR TOKYO_R50_LONG TOKYO_R50_SHORT TOKYO_R30_DIR TOKYO_R30_LONG TOKYO_R30_SHORT TOKYO_LAND CMA_LAT CMA_LON CMA_CAT CMA_WIND CMA_PRES HKO_LAT HKO_LON HKO_CAT HKO_WIND HKO_PRES NEWDELHI_LAT NEWDELHI_LON NEWDELHI_GRADE NEWDELHI_WIND NEWDELHI_PRES NEWDELHI_CI NEWDELHI_DP NEWDELHI_POCI REUNION_LAT REUNION_LON REUNION_TYPE REUNION_WIND REUNION_PRES REUNION_TNUM REUNION_CI REUNION_RMW REUNION_R34_NE REUNION_R34_SE REUNION_R34_SW REUNION_R34_NW REUNION_R50_NE REUNION_R50_SE REUNION_R50_SW REUNION_R50_NW REUNION_R64_NE REUNION_R64_SE REUNION_R64_SW REUNION_R64_NW BOM_LAT BOM_LON BOM_TYPE BOM_WIND BOM_PRES BOM_TNUM BOM_CI BOM_RMW BOM_R34_NE BOM_R34_SE BOM_R34_SW BOM_R34_NW BOM_R50_NE BOM_R50_SE BOM_R50_SW BOM_R50_NW BOM_R64_NE BOM_R64_SE BOM_R64_SW BOM_R64_NW BOM_ROCI BOM_POCI BOM_EYE BOM_POS_METHOD BOM_PRES_METHOD NADI_LAT NADI_LON NADI_CAT NADI_WIND NADI_PRES WELLINGTON_LAT WELLINGTON_LON WELLINGTON_WIND WELLINGTON_PRES DS824_LAT DS824_LON DS824_STAGE DS824_WIND DS824_PRES TD9636_LAT TD9636_LON TD9636_STAGE TD9636_WIND TD9636_PRES TD9635_LAT TD9635_LON TD9635_WIND TD9635_PRES TD9635_ROCI NEUMANN_LAT NEUMANN_LON NEUMANN_CLASS NEUMANN_WIND NEUMANN_PRES MLC_LAT MLC_LON MLC_CLASS MLC_WIND MLC_PRES USA_GUST BOM_GUST BOM_GUST_PER REUNION_GUST REUNION_GUST_PER USA_SEAHGT USA_SEARAD_NE USA_SEARAD_SE USA_SEARAD_SW USA_SEARAD_NW STORM_SPEED STORM_DIR
1953275N13325 1953 64 NA NA GAIL 1953-10-02 06:00:00 TS 13.1000 -35.5000 45 hurdat_atl main 1854 1848 O_____________ hurdat_atl AL101953 13.1000 -35.5000 TS 45 0 15 286
1953275N13325 1953 64 NA NA GAIL 1953-10-02 09:00:00 TS 13.3104 -36.2497 main 1858 1853 P_____________ AL101953 13.3104 -36.2497 TS 47 0 15 285
1953275N13325 1953 64 NA NA GAIL 1953-10-02 12:00:00 TS 13.5000 -37.0000 50 hurdat_atl main 1863 1820 O_____________ hurdat_atl AL101953 13.5000 -37.0000 TS 50 0 15 283
1953275N13325 1953 64 NA NA GAIL 1953-10-02 15:00:00 TS 13.6573 -37.7502 main 1817 1762 P_____________ AL101953 13.6573 -37.7502 TS 52 0 15 282
1953275N13325 1953 64 NA NA GAIL 1953-10-02 18:00:00 TS 13.8000 -38.5000 55 hurdat_atl main 1762 1708 O_____________ hurdat_atl AL101953 13.8000 -38.5000 TS 55 0 15 281
1953275N13325 1953 64 NA NA GAIL 1953-10-02 21:00:00 TS 13.9348 -39.2577 main 1700 1655 P_____________ AL101953 13.9348 -39.2577 TS 57 0 15 282
1953275N13325 1953 64 NA NA GAIL 1953-10-03 00:00:00 TS 14.1000 -40.0000 60 hurdat_atl main 1655 1614 O_____________ hurdat_atl AL101953 14.1000 -40.0000 TS 60 0 15 287
1953275N13325 1953 64 NA NA GAIL 1953-10-03 03:00:00 TS 14.3572 -40.7073 main 1621 1583 P_____________ AL101953 14.3572 -40.7073 TS 62 0 14 290
1953275N13325 1953 64 NA NA GAIL 1953-10-03 06:00:00 TS 14.6000 -41.4000 65 hurdat_atl main 1583 1540 O_____________ hurdat_atl AL101953 14.6000 -41.4000 HU 65 1 14 286
1953275N13325 1953 64 NA NA GAIL 1953-10-03 09:00:00 TS 14.7451 -42.1450 main 1540 1500 P_____________ AL101953 14.7451 -42.1450 HU 67 1 14 278
1953275N13325 1953 64 NA NA GAIL 1953-10-03 12:00:00 TS 14.8000 -42.8000 70 986 hurdat_atl main 1500 1466 O_____________ hurdat_atl AL101953 14.8000 -42.8000 HU 70 986 1 11 271
1953275N13325 1953 64 NA NA GAIL 1953-10-03 15:00:00 TS 14.7723 -43.2751 main 1466 1438 P_____________ AL101953 14.7723 -43.2751 HU 70 1 8 263
1953275N13325 1953 64 NA NA GAIL 1953-10-03 18:00:00 TS 14.7000 -43.6000 70 hurdat_atl main 1438 1416 O_____________ hurdat_atl AL101953 14.7000 -43.6000 HU 70 1 6 257
1953275N13325 1953 64 NA NA GAIL 1953-10-03 21:00:00 TS 14.6424 -43.8375 main 1416 1404 P_____________ AL101953 14.6424 -43.8375 HU 70 1 4 256
1953275N13325 1953 64 NA NA GAIL 1953-10-04 00:00:00 TS 14.6000 -44.0000 70 hurdat_atl main 1404 1391 O_____________ hurdat_atl AL101953 14.6000 -44.0000 HU 70 1 3 261
1953275N13325 1953 64 NA NA GAIL 1953-10-04 03:00:00 TS 14.5925 -44.1650 main 1391 1385 P_____________ AL101953 14.5925 -44.1650 HU 70 1 3 270
1953275N13325 1953 64 NA NA GAIL 1953-10-04 06:00:00 TS 14.6000 -44.3000 70 hurdat_atl main 1385 1379 O_____________ hurdat_atl AL101953 14.6000 -44.3000 HU 70 1 2 267
1953275N13325 1953 64 NA NA GAIL 1953-10-04 09:00:00 TS 14.5775 -44.4225 main 1379 1373 P_____________ AL101953 14.5775 -44.4225 HU 67 1 2 270
1953275N13325 1953 64 NA NA GAIL 1953-10-04 12:00:00 TS 14.6000 -44.5000 65 hurdat_atl main 1373 1373 O_____________ hurdat_atl AL101953 14.6000 -44.5000 HU 65 1 2 319
1953275N13325 1953 64 NA NA GAIL 1953-10-04 15:00:00 TS 14.7050 -44.5374 main 1382 1382 P_____________ AL101953 14.7050 -44.5374 HU 65 1 3 0
1953275N13325 1953 64 NA NA GAIL 1953-10-04 18:00:00 TS 14.9000 -44.5000 65 hurdat_atl main 1401 1401 O_____________ hurdat_atl AL101953 14.9000 -44.5000 HU 65 1 4 17
1953275N13325 1953 64 NA NA GAIL 1953-10-04 21:00:00 TS 15.1249 -44.4096 main 1426 1426 P_____________ AL101953 15.1249 -44.4096 HU 62 0 7 26
1953275N13325 1953 64 NA NA GAIL 1953-10-05 00:00:00 TS 15.5000 -44.2000 60 hurdat_atl main 1474 1474 O_____________ hurdat_atl AL101953 15.5000 -44.2000 TS 60 0 11 29
1953275N13325 1953 64 NA NA GAIL 1953-10-05 03:00:00 TS 16.1051 -43.8452 main 1553 1553 P_____________ AL101953 16.1051 -43.8452 TS 60 0 15 31
1953275N13325 1953 64 NA NA GAIL 1953-10-05 06:00:00 TS 16.8000 -43.4000 60 hurdat_atl main 1641 1641 O_____________ hurdat_atl AL101953 16.8000 -43.4000 TS 60 0 16 33
1953275N13325 1953 64 NA NA GAIL 1953-10-05 09:00:00 TS 17.4075 -42.9498 main 1726 1726 P_____________ AL101953 17.4075 -42.9498 TS 60 0 15 36
1953275N13325 1953 64 NA NA GAIL 1953-10-05 12:00:00 TS 18.0000 -42.5000 60 hurdat_atl main 1805 1805 O_____________ hurdat_atl AL101953 18.0000 -42.5000 TS 60 0 15 36
1953275N13325 1953 64 NA NA GAIL 1953-10-05 15:00:00 TS 18.6301 -42.0329 main 1891 1891 P_____________ AL101953 18.6301 -42.0329 TS 60 0 14 32
1953275N13325 1953 64 NA NA GAIL 1953-10-05 18:00:00 TS 19.2000 -41.7000 60 hurdat_atl main 1963 1963 O_____________ hurdat_atl AL101953 19.2000 -41.7000 TS 60 0 11 21
1953275N13325 1953 64 NA NA GAIL 1953-10-05 21:00:00 TS 19.6523 -41.6170 main 2013 2013 P_____________ AL101953 19.6523 -41.6170 TS 60 0 8 1
1953275N13325 1953 64 NA NA GAIL 1953-10-06 00:00:00 TS 20.0000 -41.7000 60 hurdat_atl main 2034 2034 O_____________ hurdat_atl AL101953 20.0000 -41.7000 TS 60 0 7 345
1953275N13325 1953 64 NA NA GAIL 1953-10-06 03:00:00 TS 20.2799 -41.7976 main 2054 2054 P_____________ AL101953 20.2799 -41.7976 TS 60 0 6 330
1953275N13325 1953 64 NA NA GAIL 1953-10-06 06:00:00 TS 20.5000 -42.0000 60 hurdat_atl main 2060 2054 O_____________ hurdat_atl AL101953 20.5000 -42.0000 TS 60 0 6 313
1953275N13325 1953 64 NA NA GAIL 1953-10-06 09:00:00 TS 20.7149 -42.2975 main 2061 2053 P_____________ AL101953 20.7149 -42.2975 TS 60 0 8 301
1953275N13325 1953 64 NA NA GAIL 1953-10-06 12:00:00 TS 20.9000 -42.7000 60 hurdat_atl main 2057 2044 O_____________ hurdat_atl AL101953 20.9000 -42.7000 TS 60 0 9 293
1953275N13325 1953 64 NA NA GAIL 1953-10-06 15:00:00 TS 21.0650 -43.1700 main 2048 2032 P_____________ AL101953 21.0650 -43.1700 TS 60 0 10 288
1953275N13325 1953 64 NA NA GAIL 1953-10-06 18:00:00 TS 21.2000 -43.7000 60 hurdat_atl main 2032 2017 O_____________ hurdat_atl AL101953 21.2000 -43.7000 TS 60 0 10 284
1953275N13325 1953 64 NA NA GAIL 1953-10-06 21:00:00 TS 21.3073 -44.2352 main 2017 1998 P_____________ AL101953 21.3073 -44.2352 TS 60 0 10 281
1953275N13325 1953 64 NA NA GAIL 1953-10-07 00:00:00 TS 21.4000 -44.8000 60 hurdat_atl main 1998 1981 O_____________ hurdat_atl AL101953 21.4000 -44.8000 TS 60 0 11 280
1953275N13325 1953 64 NA NA GAIL 1953-10-07 03:00:00 TS 21.4998 -45.3851 main 1981 1966 P_____________ AL101953 21.4998 -45.3851 TS 60 0 11 280
1953275N13325 1953 64 NA NA GAIL 1953-10-07 06:00:00 TS 21.6000 -46.0000 60 hurdat_atl main 1966 1948 O_____________ hurdat_atl AL101953 21.6000 -46.0000 TS 60 0 12 280
1953275N13325 1953 64 NA NA GAIL 1953-10-07 09:00:00 TS 21.6997 -46.6351 main 1948 1916 P_____________ AL101953 21.6997 -46.6351 TS 60 0 12 279
1953275N13325 1953 64 NA NA GAIL 1953-10-07 12:00:00 TS 21.8000 -47.3000 60 hurdat_atl main 1916 1867 O_____________ hurdat_atl AL101953 21.8000 -47.3000 TS 60 0 13 279
1953275N13325 1953 64 NA NA GAIL 1953-10-07 15:00:00 TS 21.8923 -47.9927 main 1867 1807 P_____________ AL101953 21.8923 -47.9927 TS 60 0 13 279
1953275N13325 1953 64 NA NA GAIL 1953-10-07 18:00:00 TS 22.0000 -48.7000 60 hurdat_atl main 1807 1738 O_____________ hurdat_atl AL101953 22.0000 -48.7000 TS 60 0 13 281
1953275N13325 1953 64 NA NA GAIL 1953-10-07 21:00:00 TS 22.1422 -49.4000 main 1738 1672 P_____________ AL101953 22.1422 -49.4000 TS 60 0 13 283
1953275N13325 1953 64 NA NA GAIL 1953-10-08 00:00:00 TS 22.3000 -50.1000 60 hurdat_atl main 1672 1604 O_____________ hurdat_atl AL101953 22.3000 -50.1000 TS 60 0 13 283
1953275N13325 1953 64 NA NA GAIL 1953-10-08 03:00:00 TS 22.4421 -50.7928 main 1604 1540 P_____________ AL101953 22.4421 -50.7928 TS 60 0 13 283
1953275N13325 1953 64 NA NA GAIL 1953-10-08 06:00:00 TS 22.6000 -51.5000 60 hurdat_atl main 1540 1477 O_____________ hurdat_atl AL101953 22.6000 -51.5000 TS 60 0 14 285
1953275N13325 1953 64 NA NA GAIL 1953-10-08 09:00:00 TS 22.8073 -52.2423 main 1477 1406 P_____________ AL101953 22.8073 -52.2423 TS 60 0 14 286
1953275N13325 1953 64 NA NA GAIL 1953-10-08 12:00:00 TS 23.0000 -53.0000 60 hurdat_atl main 1406 1343 O_____________ hurdat_atl AL101953 23.0000 -53.0000 TS 60 0 14 283
1953275N13325 1953 64 NA NA GAIL 1953-10-08 15:00:00 TS 23.1221 -53.7502 main 1333 1271 P_____________ AL101953 23.1221 -53.7502 TS 60 0 14 278
1953275N13325 1953 64 NA NA GAIL 1953-10-08 18:00:00 TS 23.2000 -54.5000 60 hurdat_atl main 1271 1206 O_____________ hurdat_atl AL101953 23.2000 -54.5000 TS 60 0 14 275
1953275N13325 1953 64 NA NA GAIL 1953-10-08 21:00:00 TS 23.2351 -55.2879 main 1196 1137 P_____________ AL101953 23.2351 -55.2879 TS 60 0 14 274
1953275N13325 1953 64 NA NA GAIL 1953-10-09 00:00:00 TS 23.3000 -56.0000 60 hurdat_atl main 1137 1097 O_____________ hurdat_atl AL101953 23.3000 -56.0000 TS 60 0 12 281
1953275N13325 1953 64 NA NA GAIL 1953-10-09 03:00:00 TS 23.4697 -56.5674 main 1094 1070 P_____________ AL101953 23.4697 -56.5674 TS 60 0 10 294
1953275N13325 1953 64 NA NA GAIL 1953-10-09 06:00:00 TS 23.7000 -57.0000 60 hurdat_atl main 1070 1057 O_____________ hurdat_atl AL101953 23.7000 -57.0000 TS 60 0 8 304
1953275N13325 1953 64 NA NA GAIL 1953-10-09 09:00:00 TS 23.9347 -57.3303 main 1057 1046 P_____________ AL101953 23.9347 -57.3303 TS 60 0 7 312
1953275N13325 1953 64 NA NA GAIL 1953-10-09 12:00:00 TS 24.2000 -57.6000 60 hurdat_atl main 1051 1048 O_____________ hurdat_atl AL101953 24.2000 -57.6000 TS 60 0 8 319
1953275N13325 1953 64 NA NA GAIL 1953-10-09 15:00:00 TS 24.5073 -57.8851 main 1048 1046 P_____________ AL101953 24.5073 -57.8851 TS 60 0 8 318
1953275N13325 1953 64 NA NA GAIL 1953-10-09 18:00:00 TS 24.8000 -58.2000 60 hurdat_atl main 1046 1039 O_____________ hurdat_atl AL101953 24.8000 -58.2000 TS 60 0 8 309
1953275N13325 1953 64 NA NA GAIL 1953-10-09 21:00:00 TS 25.0074 -58.5703 main 1032 1019 P_____________ AL101953 25.0074 -58.5703 TS 60 0 8 299
1953275N13325 1953 64 NA NA GAIL 1953-10-10 00:00:00 TS 25.2000 -59.0000 60 hurdat_atl main 1020 1003 O_____________ hurdat_atl AL101953 25.2000 -59.0000 TS 60 0 9 298
1953275N13325 1953 64 NA NA GAIL 1953-10-10 03:00:00 TS 25.4425 -59.4850 main 1003 996 P_____________ AL101953 25.4425 -59.4850 TS 57 0 10 299
1953275N13325 1953 64 NA NA GAIL 1953-10-10 06:00:00 TS 25.7000 -60.0000 55 hurdat_atl main 999 985 O_____________ hurdat_atl AL101953 25.7000 -60.0000 TS 55 0 11 297
1953275N13325 1953 64 NA NA GAIL 1953-10-10 09:00:00 TS 25.9276 -60.5377 main 989 982 P_____________ AL101953 25.9276 -60.5377 TS 55 0 10 299
1953275N13325 1953 64 NA NA GAIL 1953-10-10 12:00:00 TS 26.2000 -61.0000 55 hurdat_atl main 991 991 O_____________ hurdat_atl AL101953 26.2000 -61.0000 TS 55 0 9 312
1953275N13325 1953 64 NA NA GAIL 1953-10-10 15:00:00 TS 26.5623 -61.3101 main 1017 1017 P_____________ AL101953 26.5623 -61.3101 TS 55 0 9 331
1953275N13325 1953 64 NA NA GAIL 1953-10-10 18:00:00 TS 27.0000 -61.5000 55 hurdat_atl main 1049 1049 O_____________ hurdat_atl AL101953 27.0000 -61.5000 TS 55 0 10 341
1953275N13325 1953 64 NA NA GAIL 1953-10-10 21:00:00 TS 27.4774 -61.6745 main 1092 1092 P_____________ AL101953 27.4774 -61.6745 TS 52 0 10 350
1953275N13325 1953 64 NA NA GAIL 1953-10-11 00:00:00 TS 28.0000 -61.7000 50 hurdat_atl main 1144 1144 O_____________ hurdat_atl AL101953 28.0000 -61.7000 TS 50 0 11 7
1953275N13325 1953 64 NA NA GAIL 1953-10-11 03:00:00 TS 28.5275 -61.5176 main 1203 1203 P_____________ AL101953 28.5275 -61.5176 TS 50 0 12 22
1953275N13325 1953 64 NA NA GAIL 1953-10-11 06:00:00 TS 29.1000 -61.2000 50 hurdat_atl main 1276 1276 O_____________ hurdat_atl AL101953 29.1000 -61.2000 TS 50 0 13 25
1953275N13325 1953 64 NA NA GAIL 1953-10-11 09:00:00 TS 29.7425 -60.8650 main 1349 1349 P_____________ AL101953 29.7425 -60.8650 TS 50 0 14 25
1953275N13325 1953 64 NA NA GAIL 1953-10-11 12:00:00 TS 30.4000 -60.5000 50 hurdat_atl main 1436 1436 O_____________ hurdat_atl AL101953 30.4000 -60.5000 TS 50 0 14 26
1953275N13325 1953 64 NA NA GAIL 1953-10-11 15:00:00 TS 30.9923 -60.1566 main 1462 1409 P_____________ AL101953 30.9923 -60.1566 TS 50 0 13 27
1953275N13325 1953 64 NA NA GAIL 1953-10-11 18:00:00 TS 31.6000 -59.8000 50 997 hurdat_atl main 1409 1356 O_____________ hurdat_atl AL101953 31.6000 -59.8000 TS 50 997 0 14 26
1953275N13325 1953 64 NA NA GAIL 1953-10-11 21:00:00 TS 32.2773 -59.4217 main 1348 1290 P_____________ AL101953 32.2773 -59.4217 TS 52 0 16 26
1953275N13325 1953 64 NA NA GAIL 1953-10-12 00:00:00 TS 33.0000 -59.0000 55 hurdat_atl main 1290 1234 O_____________ hurdat_atl AL101953 33.0000 -59.0000 TS 55 0 17 27
1953275N13325 1953 64 NA NA GAIL 1953-10-12 03:00:00 TS 33.7455 -58.5195 main 1238 1181 P_____________ AL101953 33.7455 -58.5195 TS 55 0 17 29
1953275N13325 1953 64 NA NA GAIL 1953-10-12 06:00:00 ET 34.5000 -58.0000 55 hurdat_atl main 1181 O_____________ hurdat_atl AL101953 34.5000 -58.0000 EX 55 -4 17 30

IBTrACS Databaseについて

本データベースは、米国NOAAが公開する1842年以降の世界の熱帯低気圧のベストトラックデータアーカイブInternational Best Track Archive for Climate Stewardship (IBTrACS)を、ウェブで閲覧しやすい形式に変換したものです。

最終更新日:2021-12-03